Terminal Aerodrome Forecast
Issued by NWS Jackson, MS

Home | Current Version | Previous Version | Text Only | Print | Product List | Glossary On
Versions: 1 2 3 4 5 6 7 8 9 10 11 12 13 14 15 16 17 18
000
FTUS44 KJAN 310700 AAA
TAFJAN
TAF AMD
KJAN 310701Z 3107/0106 16008KT P6SM BKN150
     FM310830 16006KT P6SM BKN007
     FM311100 16004KT P6SM BKN012
     FM311600 19007KT P6SM BKN020
     FM311730 20008KT P6SM BKN035=

USA.gov is the U.S. government's official web portal to all federal, state and local government web resources and services.